createdAt,value
2023-04-28T00:00:02.222Z,54.49
2023-04-28T00:02:49.436Z,54.59
2023-04-28T00:05:33.473Z,54.67
2023-04-28T00:08:17.473Z,54.85
2023-04-28T00:11:01.078Z,54.75
2023-04-28T00:13:45.223Z,54.78
2023-04-28T00:16:20.947Z,55.16
2023-04-28T00:19:04.895Z,55.18
2023-04-28T00:21:48.899Z,55.35
2023-04-28T00:24:33.372Z,55.39
2023-04-28T00:27:17.069Z,55.50
2023-04-28T00:29:59.682Z,55.75
2023-04-28T00:32:43.330Z,55.93
2023-04-28T00:35:27.276Z,55.93
2023-04-28T00:38:02.938Z,56.21
2023-04-28T00:40:34.338Z,56.37
2023-04-28T00:43:06.977Z,56.30
2023-04-28T00:45:51.450Z,56.52
2023-04-28T00:48:18.486Z,56.77
2023-04-28T00:51:03.436Z,56.94
2023-04-28T00:53:47.886Z,56.94
2023-04-28T00:56:31.940Z,57.06
2023-04-28T00:59:08.232Z,57.35
2023-04-28T01:01:52.356Z,57.32
2023-04-28T01:04:36.795Z,57.43
2023-04-28T01:07:21.042Z,57.68
2023-04-28T01:10:06.417Z,57.96
2023-04-28T01:12:50.061Z,57.78
2023-04-28T01:15:33.730Z,58.14
2023-04-28T01:18:11.679Z,58.19
2023-04-28T01:20:55.978Z,58.18
2023-04-28T01:23:23.155Z,58.41
2023-04-28T01:26:06.855Z,58.38
2023-04-28T01:28:50.844Z,58.81
2023-04-28T01:31:34.920Z,58.62
2023-04-28T01:34:09.172Z,58.87
2023-04-28T01:36:36.741Z,59.07
2023-04-28T01:39:01.207Z,59.18
2023-04-28T01:41:45.465Z,59.21
2023-04-28T01:44:24.155Z,59.08
2023-04-28T01:47:00.951Z,59.29
2023-04-28T01:49:44.713Z,59.41
2023-04-28T01:52:22.093Z,59.49
2023-04-28T01:54:57.277Z,59.53
2023-04-28T01:57:41.385Z,59.84
2023-04-28T02:00:26.550Z,59.99
2023-04-28T02:03:09.581Z,59.85
2023-04-28T02:05:35.233Z,60.00
2023-04-28T02:08:19.439Z,60.12
2023-04-28T02:11:03.683Z,60.17
2023-04-28T02:13:27.588Z,60.24
2023-04-28T02:15:51.037Z,60.34
2023-04-28T02:18:16.539Z,60.43
2023-04-28T02:20:40.411Z,60.36
2023-04-28T02:23:06.839Z,60.65
2023-04-28T02:25:30.371Z,60.69
2023-04-28T02:27:53.979Z,60.74
2023-04-28T02:30:37.687Z,60.90
2023-04-28T02:33:13.365Z,60.85
2023-04-28T02:36:00.220Z,61.02
2023-04-28T02:38:44.525Z,60.98
2023-04-28T02:41:26.936Z,61.24
2023-04-28T02:43:54.496Z,61.09
2023-04-28T02:46:39.498Z,61.30
2023-04-28T02:49:07.094Z,61.17
2023-04-28T02:51:50.860Z,61.47
2023-04-28T02:54:33.519Z,61.49
2023-04-28T02:57:04.010Z,61.27
2023-04-28T02:59:30.748Z,61.44
2023-04-28T03:01:54.178Z,61.71
2023-04-28T03:04:20.551Z,61.49
2023-04-28T03:06:53.842Z,61.71
2023-04-28T03:09:17.407Z,61.76
2023-04-28T03:11:49.874Z,61.62
2023-04-28T03:14:24.401Z,61.58
2023-04-28T03:16:51.488Z,61.68
2023-04-28T03:19:15.029Z,61.56
2023-04-28T03:21:38.587Z,61.86
2023-04-28T03:24:04.808Z,61.75
2023-04-28T03:26:49.522Z,61.75
2023-04-28T03:29:33.065Z,61.79
2023-04-28T03:31:59.700Z,61.83
2023-04-28T03:34:43.709Z,61.57
2023-04-28T03:37:12.176Z,61.66
2023-04-28T03:39:47.014Z,61.60
2023-04-28T03:42:31.045Z,61.55
2023-04-28T03:45:20.721Z,61.56
2023-04-28T03:47:44.736Z,61.61
2023-04-28T03:50:13.397Z,61.36
2023-04-28T03:52:46.628Z,61.56
2023-04-28T03:55:15.749Z,61.48
2023-04-28T03:57:42.622Z,61.36
2023-04-28T04:00:09.491Z,61.42
2023-04-28T04:02:38.992Z,61.17
2023-04-28T04:05:02.817Z,61.05
2023-04-28T04:07:27.403Z,61.04
2023-04-28T04:09:51.609Z,60.79
2023-04-28T04:12:15.492Z,60.80
2023-04-28T04:14:59.562Z,60.87
2023-04-28T04:17:43.762Z,60.76
2023-04-28T04:20:27.289Z,60.40
2023-04-28T04:23:03.091Z,60.48
2023-04-28T04:25:47.129Z,60.48
2023-04-28T04:28:22.051Z,60.37
2023-04-28T04:30:50.659Z,60.13
2023-04-28T04:33:34.758Z,59.93
2023-04-28T04:36:18.720Z,59.81
2023-04-28T04:39:02.767Z,59.66
2023-04-28T04:41:46.523Z,59.73
2023-04-28T04:44:30.510Z,59.23
2023-04-28T04:47:14.142Z,59.02
2023-04-28T04:49:57.894Z,57.50
2023-04-28T04:52:25.344Z,55.10
2023-04-28T04:54:52.319Z,52.41
2023-04-28T04:57:15.978Z,49.21
2023-04-28T05:00:03.886Z,46.33
2023-04-28T05:02:27.686Z,43.77
2023-04-28T05:04:52.127Z,41.81
2023-04-28T05:07:16.294Z,39.79
2023-04-28T05:09:39.960Z,37.91
2023-04-28T05:12:03.763Z,36.03
2023-04-28T05:14:27.203Z,34.75
2023-04-28T05:16:51.027Z,33.21
2023-04-28T05:19:23.117Z,31.94
2023-04-28T05:21:47.761Z,31.00
2023-04-28T05:24:11.268Z,30.19
2023-04-28T05:26:35.400Z,28.79
2023-04-28T05:29:02.477Z,27.68
2023-04-28T05:31:26.376Z,27.04
2023-04-28T05:33:51.226Z,26.23
2023-04-28T05:36:16.582Z,25.43
2023-04-28T05:38:40.367Z,24.88
2023-04-28T05:41:03.891Z,24.31
2023-04-28T05:43:27.967Z,23.69
2023-04-28T05:45:51.684Z,23.26
2023-04-28T05:48:15.658Z,22.09
2023-04-28T05:50:39.272Z,21.72
2023-04-28T05:53:04.307Z,21.32
2023-04-28T05:55:28.258Z,21.12
2023-04-28T05:57:53.747Z,20.65
2023-04-28T06:00:18.741Z,19.93
2023-04-28T06:02:42.412Z,19.52
2023-04-28T06:05:07.419Z,19.19
2023-04-28T06:07:31.135Z,19.22
2023-04-28T06:09:54.506Z,18.86
2023-04-28T06:12:18.839Z,18.48
2023-04-28T06:14:42.450Z,17.74
2023-04-28T06:17:06.138Z,17.61
2023-04-28T06:19:29.784Z,17.87
2023-04-28T06:21:53.451Z,17.54
2023-04-28T06:24:17.290Z,17.09
2023-04-28T06:26:42.761Z,17.24
2023-04-28T06:29:06.398Z,17.25
2023-04-28T06:31:29.914Z,16.92
2023-04-28T06:33:53.534Z,16.75
2023-04-28T06:36:19.666Z,16.58
2023-04-28T06:38:43.432Z,16.23
2023-04-28T06:41:06.883Z,16.02
2023-04-28T06:43:30.975Z,15.89
2023-04-28T06:46:18.362Z,15.87
2023-04-28T06:48:42.407Z,15.56
2023-04-28T06:51:05.972Z,15.24
2023-04-28T06:53:31.517Z,15.45
2023-04-28T06:55:56.234Z,15.17
2023-04-28T06:58:20.609Z,14.78
2023-04-28T07:00:44.756Z,14.42
2023-04-28T07:03:08.913Z,14.08
2023-04-28T07:05:33.898Z,14.34
2023-04-28T07:07:57.257Z,14.42
2023-04-28T07:10:20.829Z,14.39
2023-04-28T07:12:44.217Z,14.02
2023-04-28T07:15:10.358Z,13.83
2023-04-28T07:17:34.206Z,13.65
2023-04-28T07:19:57.741Z,13.54
2023-04-28T07:22:21.252Z,13.43
2023-04-28T07:24:44.911Z,13.43
2023-04-28T07:27:08.313Z,13.41
2023-04-28T07:29:33.658Z,12.81
2023-04-28T07:31:57.279Z,12.55
2023-04-28T07:34:20.877Z,12.54
2023-04-28T07:36:44.164Z,12.94
2023-04-28T07:39:07.921Z,12.94
2023-04-28T07:41:35.816Z,12.88
2023-04-28T07:43:59.127Z,12.84
2023-04-28T07:46:23.127Z,12.94
2023-04-28T07:48:46.683Z,12.98
2023-04-28T07:51:10.730Z,13.21
2023-04-28T07:53:34.569Z,13.22
2023-04-28T07:55:57.937Z,12.76
2023-04-28T07:58:21.661Z,12.66
2023-04-28T08:00:45.778Z,12.57
2023-04-28T08:03:09.391Z,12.47
2023-04-28T08:05:33.264Z,12.71
2023-04-28T08:07:56.950Z,12.37
2023-04-28T08:10:21.039Z,12.35
2023-04-28T08:12:45.254Z,12.23
2023-04-28T08:15:10.081Z,12.14
2023-04-28T08:17:33.557Z,12.27
2023-04-28T08:19:56.944Z,12.10
2023-04-28T08:22:20.600Z,11.99
2023-04-28T08:24:43.880Z,12.07
2023-04-28T08:27:07.953Z,11.98
2023-04-28T08:29:31.928Z,12.03
2023-04-28T08:31:55.285Z,11.85
2023-04-28T08:34:19.524Z,11.67
2023-04-28T08:36:43.222Z,11.61
2023-04-28T08:39:07.957Z,11.44
2023-04-28T08:41:33.294Z,11.75
2023-04-28T08:43:58.046Z,11.89
2023-04-28T08:46:23.580Z,12.35
2023-04-28T08:48:48.868Z,13.35
2023-04-28T08:51:16.008Z,13.44
2023-04-28T08:54:06.218Z,12.44
2023-04-28T08:56:26.832Z,12.04
2023-04-28T08:58:52.181Z,12.13
2023-04-28T09:01:15.530Z,12.65
2023-04-28T09:03:39.789Z,13.38
2023-04-28T09:06:03.349Z,13.91
2023-04-28T09:08:26.886Z,14.41
2023-04-28T09:11:07.386Z,14.81
2023-04-28T09:13:32.732Z,15.09
2023-04-28T09:16:01.105Z,15.91
2023-04-28T09:18:24.832Z,15.72
2023-04-28T09:20:48.410Z,15.46
2023-04-28T09:23:17.077Z,15.38
2023-04-28T09:25:40.592Z,16.08
2023-04-28T09:28:21.371Z,16.37
2023-04-28T09:30:44.930Z,16.47
2023-04-28T09:33:10.717Z,16.33
2023-04-28T09:35:42.216Z,15.82
2023-04-28T09:38:05.674Z,15.80
2023-04-28T09:40:29.076Z,15.49
2023-04-28T09:42:52.698Z,15.17
2023-04-28T09:45:16.878Z,15.24
2023-04-28T09:47:42.489Z,15.01
2023-04-28T09:50:10.980Z,14.65
2023-04-28T09:52:35.364Z,14.38
2023-04-28T09:55:01.103Z,14.85
2023-04-28T09:57:24.350Z,15.38
2023-04-28T09:59:50.127Z,14.77
2023-04-28T10:02:41.043Z,14.80
2023-04-28T10:04:58.964Z,15.27
2023-04-28T10:07:22.802Z,14.58
2023-04-28T10:09:49.485Z,14.39
2023-04-28T10:12:13.962Z,14.47
2023-04-28T10:14:38.220Z,14.43
2023-04-28T10:17:03.187Z,14.50
2023-04-28T10:19:26.745Z,14.66
2023-04-28T10:22:05.718Z,14.71
2023-04-28T10:24:30.506Z,14.74
2023-04-28T10:27:10.581Z,15.21
2023-04-28T10:29:35.471Z,15.75
2023-04-28T10:32:25.588Z,15.90
2023-04-28T10:34:49.198Z,16.39
2023-04-28T10:37:16.784Z,16.33
2023-04-28T10:39:40.576Z,16.80
2023-04-28T10:42:04.197Z,16.60
2023-04-28T10:44:43.850Z,16.81
2023-04-28T10:47:08.922Z,16.76
2023-04-28T10:50:06.229Z,17.37
2023-04-28T10:52:50.926Z,17.50
2023-04-28T10:55:36.320Z,17.64
2023-04-28T10:58:37.166Z,18.16
2023-04-28T11:01:28.970Z,18.22
2023-04-28T11:03:59.468Z,18.57
2023-04-28T11:06:25.561Z,19.02
2023-04-28T11:08:49.088Z,19.17
2023-04-28T11:11:20.959Z,19.24
2023-04-28T11:13:46.427Z,19.65
2023-04-28T11:16:10.042Z,19.95
2023-04-28T11:18:48.043Z,19.70
2023-04-28T11:21:13.979Z,19.72
2023-04-28T11:23:39.282Z,20.02
2023-04-28T11:26:03.122Z,20.56
2023-04-28T11:28:26.695Z,21.00
2023-04-28T11:30:50.915Z,21.09
2023-04-28T11:33:16.147Z,21.61
2023-04-28T11:35:43.953Z,21.79
2023-04-28T11:38:07.527Z,22.11
2023-04-28T11:40:31.854Z,22.12
2023-04-28T11:43:00.075Z,22.60
2023-04-28T11:45:24.452Z,22.68
2023-04-28T11:47:47.904Z,22.77
2023-04-28T11:50:13.588Z,23.05
2023-04-28T11:52:46.767Z,23.02
2023-04-28T11:55:17.225Z,23.20
2023-04-28T11:57:40.713Z,23.43
2023-04-28T12:00:18.492Z,23.73
2023-04-28T12:02:42.446Z,23.09
2023-04-28T12:05:09.097Z,22.61
2023-04-28T12:07:42.044Z,22.18
2023-04-28T12:10:15.222Z,22.03
2023-04-28T12:12:50.030Z,21.98
2023-04-28T12:15:16.741Z,22.46
2023-04-28T12:17:42.866Z,21.88
2023-04-28T12:20:10.791Z,21.57
2023-04-28T12:22:45.063Z,22.04
2023-04-28T12:25:11.870Z,21.60
2023-04-28T12:27:38.769Z,21.08
2023-04-28T12:30:02.939Z,20.91
2023-04-28T12:32:39.275Z,21.01
2023-04-28T12:35:04.666Z,20.90
2023-04-28T12:37:28.212Z,21.17
2023-04-28T12:39:51.781Z,21.13
2023-04-28T12:42:15.133Z,21.30
2023-04-28T12:44:40.075Z,21.46
2023-04-28T12:47:13.974Z,21.92
2023-04-28T12:49:38.004Z,21.69
2023-04-28T12:52:05.137Z,21.78
2023-04-28T12:54:29.046Z,21.60
2023-04-28T12:56:54.016Z,21.79
2023-04-28T12:59:17.442Z,21.94
2023-04-28T13:01:40.783Z,21.65
2023-04-28T13:04:05.265Z,21.67
2023-04-28T13:06:28.853Z,22.08
2023-04-28T13:08:52.738Z,22.10
2023-04-28T13:11:22.615Z,21.99
2023-04-28T13:13:46.756Z,22.00
2023-04-28T13:16:10.123Z,22.28
2023-04-28T13:18:33.935Z,22.58
2023-04-28T13:20:57.541Z,22.55
2023-04-28T13:23:21.672Z,22.72
2023-04-28T13:25:45.147Z,22.43
2023-04-28T13:28:08.614Z,21.92
2023-04-28T13:30:32.080Z,21.50
2023-04-28T13:32:57.463Z,21.83
2023-04-28T13:35:21.114Z,22.18
2023-04-28T13:37:45.479Z,22.12
2023-04-28T13:40:11.720Z,22.58
2023-04-28T13:42:35.106Z,22.99
2023-04-28T13:44:58.554Z,23.34
2023-04-28T13:47:22.022Z,23.34
2023-04-28T13:49:45.383Z,23.62
2023-04-28T13:52:08.969Z,23.90
2023-04-28T13:54:32.364Z,24.10
2023-04-28T13:56:56.676Z,24.15
2023-04-28T13:59:20.182Z,24.05
2023-04-28T14:01:43.619Z,23.74
2023-04-28T14:04:07.505Z,23.84
2023-04-28T14:06:33.049Z,24.25
2023-04-28T14:08:59.039Z,24.78
2023-04-28T14:11:22.811Z,25.08
2023-04-28T14:13:46.219Z,25.56
2023-04-28T14:16:09.879Z,25.49
2023-04-28T14:18:33.860Z,25.58
2023-04-28T14:21:18.079Z,25.93
2023-04-28T14:23:41.573Z,26.11
2023-04-28T14:26:06.287Z,26.30
2023-04-28T14:28:30.459Z,26.49
2023-04-28T14:30:54.903Z,26.86
2023-04-28T14:33:18.387Z,26.89
2023-04-28T14:35:45.224Z,27.06
2023-04-28T14:38:08.683Z,26.61
2023-04-28T14:40:32.696Z,26.66
2023-04-28T14:42:56.555Z,26.70
2023-04-28T14:45:20.453Z,26.73
2023-04-28T14:47:44.477Z,26.91
2023-04-28T14:50:13.719Z,26.97
2023-04-28T14:52:40.620Z,27.11
2023-04-28T14:55:05.129Z,27.19
2023-04-28T14:57:39.081Z,27.30
2023-04-28T15:00:03.356Z,27.27
2023-04-28T15:02:28.693Z,27.47
2023-04-28T15:05:02.762Z,27.39
2023-04-28T15:07:31.000Z,27.27
2023-04-28T15:09:54.624Z,27.48
2023-04-28T15:12:18.543Z,27.66
2023-04-28T15:14:42.227Z,27.51
2023-04-28T15:17:14.801Z,27.59
2023-04-28T15:19:38.624Z,27.63
2023-04-28T15:22:02.837Z,27.65
2023-04-28T15:24:26.340Z,27.82
2023-04-28T15:26:49.777Z,27.76
2023-04-28T15:29:13.280Z,27.91
2023-04-28T15:31:36.908Z,28.08
2023-04-28T15:34:01.254Z,28.19
2023-04-28T15:36:24.971Z,28.47
2023-04-28T15:38:48.453Z,28.56
2023-04-28T15:41:12.188Z,28.10
2023-04-28T15:43:36.791Z,28.18
2023-04-28T15:46:01.307Z,28.01
2023-04-28T15:48:25.118Z,28.18
2023-04-28T15:50:48.806Z,28.28
2023-04-28T15:53:16.776Z,28.43
2023-04-28T15:55:40.352Z,28.68
2023-04-28T15:58:03.943Z,29.06
2023-04-28T16:00:37.664Z,28.97
2023-04-28T16:03:01.819Z,29.01
2023-04-28T16:05:25.767Z,29.09
2023-04-28T16:07:49.417Z,29.25
2023-04-28T16:10:15.591Z,29.44
2023-04-28T16:12:42.124Z,29.58
2023-04-28T16:15:26.369Z,29.95
2023-04-28T16:17:51.310Z,30.16
2023-04-28T16:20:14.885Z,30.21
2023-04-28T16:22:40.862Z,30.26
2023-04-28T16:25:08.820Z,30.35
2023-04-28T16:27:32.952Z,30.33
2023-04-28T16:29:56.618Z,30.39
2023-04-28T16:32:20.069Z,30.55
2023-04-28T16:34:43.588Z,30.51
2023-04-28T16:37:18.517Z,30.59
2023-04-28T16:39:42.192Z,30.65
2023-04-28T16:42:05.649Z,30.80
2023-04-28T16:44:32.904Z,31.03
2023-04-28T16:46:57.425Z,31.03
2023-04-28T16:49:21.164Z,31.16
2023-04-28T16:51:57.735Z,31.29
2023-04-28T16:54:21.217Z,31.56
2023-04-28T16:56:48.240Z,31.60
2023-04-28T16:59:15.427Z,31.65
2023-04-28T17:01:38.845Z,31.71
2023-04-28T17:04:06.043Z,31.83
2023-04-28T17:06:29.754Z,31.77
2023-04-28T17:08:53.250Z,32.09
2023-04-28T17:11:19.380Z,32.03
2023-04-28T17:13:47.500Z,32.01
2023-04-28T17:16:14.044Z,32.08
2023-04-28T17:18:40.780Z,32.12
2023-04-28T17:21:26.551Z,32.24
2023-04-28T17:23:52.685Z,32.30
2023-04-28T17:26:36.950Z,32.45
2023-04-28T17:29:04.182Z,32.49
2023-04-28T17:31:40.673Z,32.74
2023-04-28T17:34:24.531Z,32.76
2023-04-28T17:37:01.357Z,32.80
2023-04-28T17:39:38.136Z,33.02
2023-04-28T17:42:03.637Z,33.09
2023-04-28T17:44:47.312Z,33.20
2023-04-28T17:47:11.244Z,33.30
2023-04-28T17:49:45.252Z,33.51
2023-04-28T17:52:18.635Z,33.62
2023-04-28T17:55:02.685Z,33.71
2023-04-28T17:57:47.335Z,33.78
2023-04-28T18:00:31.383Z,33.84
2023-04-28T18:02:55.455Z,34.07
2023-04-28T18:05:23.580Z,34.09
2023-04-28T18:07:47.200Z,34.37
2023-04-28T18:10:11.417Z,34.36
2023-04-28T18:12:55.790Z,34.46
2023-04-28T18:15:20.248Z,34.53
2023-04-28T18:17:46.964Z,34.68
2023-04-28T18:20:14.029Z,34.80
2023-04-28T18:22:40.918Z,34.86
2023-04-28T18:25:05.293Z,34.96
2023-04-28T18:27:37.343Z,35.04
2023-04-28T18:30:10.353Z,35.11
2023-04-28T18:32:54.227Z,35.20
2023-04-28T18:35:27.227Z,35.31
2023-04-28T18:38:00.548Z,35.43
2023-04-28T18:40:37.206Z,35.44
2023-04-28T18:43:01.900Z,35.60
2023-04-28T18:45:40.121Z,35.69
2023-04-28T18:48:23.116Z,35.80
2023-04-28T18:50:50.575Z,35.80
2023-04-28T18:53:35.132Z,35.99
2023-04-28T18:56:20.612Z,36.13
2023-04-28T18:59:05.343Z,36.19
2023-04-28T19:01:37.872Z,36.12
2023-04-28T19:04:04.776Z,36.29
2023-04-28T19:06:31.125Z,36.33
2023-04-28T19:08:55.228Z,36.56
2023-04-28T19:11:27.600Z,36.68
2023-04-28T19:14:00.719Z,36.71
2023-04-28T19:16:44.440Z,36.78
2023-04-28T19:19:15.450Z,36.94
2023-04-28T19:21:42.085Z,36.96
2023-04-28T19:24:28.601Z,36.93
2023-04-28T19:26:57.501Z,36.94
2023-04-28T19:29:24.572Z,37.13
2023-04-28T19:32:09.272Z,37.17
2023-04-28T19:34:43.723Z,37.29
2023-04-28T19:37:22.142Z,37.40
2023-04-28T19:39:48.560Z,37.32
2023-04-28T19:42:15.018Z,37.59
2023-04-28T19:44:47.729Z,37.64
2023-04-28T19:47:24.145Z,37.71
2023-04-28T19:49:46.959Z,37.86
2023-04-28T19:52:10.450Z,37.97
2023-04-28T19:54:33.975Z,38.07
2023-04-28T19:57:01.153Z,38.20
2023-04-28T19:59:45.429Z,38.28
2023-04-28T20:02:18.329Z,38.47
2023-04-28T20:05:03.486Z,38.47
2023-04-28T20:07:30.376Z,38.52
2023-04-28T20:09:55.487Z,38.75
2023-04-28T20:12:18.907Z,38.81
2023-04-28T20:14:51.475Z,39.01
2023-04-28T20:17:18.145Z,39.09
2023-04-28T20:19:51.198Z,39.26
2023-04-28T20:22:35.650Z,39.43
2023-04-28T20:25:13.975Z,39.63
2023-04-28T20:27:57.719Z,39.68
2023-04-28T20:30:34.425Z,39.91
2023-04-28T20:33:18.110Z,40.10
2023-04-28T20:35:44.740Z,40.08
2023-04-28T20:38:29.309Z,40.27
2023-04-28T20:40:59.147Z,40.46
2023-04-28T20:43:32.904Z,40.48
2023-04-28T20:45:58.826Z,40.74
2023-04-28T20:48:22.432Z,41.01
2023-04-28T20:50:52.056Z,41.21
2023-04-28T20:53:26.076Z,41.17
2023-04-28T20:55:50.005Z,41.28
2023-04-28T20:58:14.296Z,41.55
2023-04-28T21:00:40.402Z,41.65
2023-04-28T21:03:17.819Z,41.90
2023-04-28T21:05:54.072Z,42.16
2023-04-28T21:08:17.747Z,42.34
2023-04-28T21:11:02.268Z,42.49
2023-04-28T21:13:46.260Z,42.39
2023-04-28T21:16:30.346Z,42.54
2023-04-28T21:19:14.383Z,42.61
2023-04-28T21:21:58.526Z,42.65
2023-04-28T21:24:42.662Z,42.75
2023-04-28T21:27:26.802Z,42.92
2023-04-28T21:30:12.578Z,42.86
2023-04-28T21:32:56.899Z,43.01
2023-04-28T21:35:40.683Z,43.06
2023-04-28T21:38:07.472Z,43.17
2023-04-28T21:40:51.922Z,43.38
2023-04-28T21:43:36.675Z,43.50
2023-04-28T21:46:09.402Z,43.53
2023-04-28T21:48:42.187Z,43.53
2023-04-28T21:51:05.978Z,43.63
2023-04-28T21:53:50.136Z,43.68
2023-04-28T21:56:25.154Z,43.82
2023-04-28T21:59:00.392Z,43.90
2023-04-28T22:01:24.167Z,43.84
2023-04-28T22:04:09.022Z,44.16
2023-04-28T22:06:33.165Z,43.97
2023-04-28T22:09:08.631Z,44.07
2023-04-28T22:11:52.701Z,44.21
2023-04-28T22:14:40.950Z,44.14
2023-04-28T22:17:05.150Z,44.41
2023-04-28T22:19:49.285Z,44.32
2023-04-28T22:22:20.376Z,44.63
2023-04-28T22:24:51.676Z,44.90
2023-04-28T22:27:26.605Z,45.00
2023-04-28T22:30:12.818Z,45.18
2023-04-28T22:32:36.596Z,45.38
2023-04-28T22:35:04.058Z,45.23
2023-04-28T22:37:48.009Z,45.52
2023-04-28T22:40:12.022Z,45.57
2023-04-28T22:42:36.943Z,45.70
2023-04-28T22:45:21.132Z,45.81
2023-04-28T22:48:06.566Z,46.10
2023-04-28T22:50:31.157Z,45.99
2023-04-28T22:53:04.467Z,46.29
2023-04-28T22:55:49.206Z,46.36
2023-04-28T22:58:33.359Z,46.45
2023-04-28T23:01:17.264Z,46.74
2023-04-28T23:03:52.201Z,46.84
2023-04-28T23:06:15.901Z,47.16
2023-04-28T23:08:43.009Z,47.24
2023-04-28T23:11:15.157Z,47.38
2023-04-28T23:13:59.195Z,47.40
2023-04-28T23:16:31.732Z,47.62
2023-04-28T23:19:16.565Z,47.86
2023-04-28T23:21:53.764Z,47.94
2023-04-28T23:24:39.605Z,48.45
2023-04-28T23:27:11.961Z,48.45
2023-04-28T23:29:56.650Z,48.75
2023-04-28T23:32:41.540Z,48.77
2023-04-28T23:35:09.735Z,49.02
2023-04-28T23:37:53.438Z,49.13
2023-04-28T23:40:17.609Z,49.38
2023-04-28T23:43:01.724Z,49.78
2023-04-28T23:45:28.402Z,49.73
2023-04-28T23:48:12.609Z,49.50
2023-04-28T23:50:37.784Z,49.85
2023-04-28T23:53:20.381Z,49.91
2023-04-28T23:55:56.524Z,50.38
2023-04-28T23:58:40.338Z,50.35
